sensor_id;sensor_type;location;lat;lon;timestamp;temperature;humidity
25300;DHT22;13241;51.208;4.432;2023-03-16T00:02:05;7.70;99.90
25300;DHT22;13241;51.208;4.432;2023-03-16T00:04:33;7.60;99.90
25300;DHT22;13241;51.208;4.432;2023-03-16T00:07:08;7.60;99.90
25300;DHT22;13241;51.208;4.432;2023-03-16T00:09:36;7.60;99.90
25300;DHT22;13241;51.208;4.432;2023-03-16T00:12:12;7.60;99.90
25300;DHT22;13241;51.208;4.432;2023-03-16T00:14:43;7.60;99.90
25300;DHT22;13241;51.208;4.432;2023-03-16T00:17:12;7.60;99.90
25300;DHT22;13241;51.208;4.432;2023-03-16T00:19:50;7.60;99.90
25300;DHT22;13241;51.208;4.432;2023-03-16T00:22:22;7.60;99.90
25300;DHT22;13241;51.208;4.432;2023-03-16T00:24:50;7.70;99.90
25300;DHT22;13241;51.208;4.432;2023-03-16T00:27:19;7.70;99.90
25300;DHT22;13241;51.208;4.432;2023-03-16T00:29:50;7.70;99.90
25300;DHT22;13241;51.208;4.432;2023-03-16T00:32:27;7.70;99.90
25300;DHT22;13241;51.208;4.432;2023-03-16T00:34:54;7.70;99.90
25300;DHT22;13241;51.208;4.432;2023-03-16T00:37:23;7.70;99.90
25300;DHT22;13241;51.208;4.432;2023-03-16T00:39:51;7.70;99.90
25300;DHT22;13241;51.208;4.432;2023-03-16T00:42:18;7.70;99.90
25300;DHT22;13241;51.208;4.432;2023-03-16T00:44:45;7.70;99.90
25300;DHT22;13241;51.208;4.432;2023-03-16T00:47:13;7.70;99.90
25300;DHT22;13241;51.208;4.432;2023-03-16T00:49:41;7.70;99.90
25300;DHT22;13241;51.208;4.432;2023-03-16T00:52:10;7.70;99.90
25300;DHT22;13241;51.208;4.432;2023-03-16T00:54:42;7.70;99.90
25300;DHT22;13241;51.208;4.432;2023-03-16T00:57:10;7.70;99.90
25300;DHT22;13241;51.208;4.432;2023-03-16T00:59:38;7.70;99.90
25300;DHT22;13241;51.208;4.432;2023-03-16T01:02:06;7.60;99.90
25300;DHT22;13241;51.208;4.432;2023-03-16T01:04:33;7.60;99.90
25300;DHT22;13241;51.208;4.432;2023-03-16T01:07:03;7.60;99.90
25300;DHT22;13241;51.208;4.432;2023-03-16T01:09:30;7.60;99.90
25300;DHT22;13241;51.208;4.432;2023-03-16T01:12:03;7.60;99.90
25300;DHT22;13241;51.208;4.432;2023-03-16T01:14:34;7.70;99.90
25300;DHT22;13241;51.208;4.432;2023-03-16T01:17:03;7.60;99.90
25300;DHT22;13241;51.208;4.432;2023-03-16T01:19:31;7.60;99.90
25300;DHT22;13241;51.208;4.432;2023-03-16T01:22:04;7.60;99.90
25300;DHT22;13241;51.208;4.432;2023-03-16T01:24:32;7.60;99.90
25300;DHT22;13241;51.208;4.432;2023-03-16T01:27:00;7.50;99.90
25300;DHT22;13241;51.208;4.432;2023-03-16T01:29:27;7.50;99.90
25300;DHT22;13241;51.208;4.432;2023-03-16T01:31:56;7.50;99.90
25300;DHT22;13241;51.208;4.432;2023-03-16T01:34:23;7.60;99.90
25300;DHT22;13241;51.208;4.432;2023-03-16T01:36:50;7.60;99.90
25300;DHT22;13241;51.208;4.432;2023-03-16T01:39:28;7.60;99.90
25300;DHT22;13241;51.208;4.432;2023-03-16T01:41:56;7.60;99.90
25300;DHT22;13241;51.208;4.432;2023-03-16T01:44:24;7.60;99.90
25300;DHT22;13241;51.208;4.432;2023-03-16T01:47:04;7.60;99.90
25300;DHT22;13241;51.208;4.432;2023-03-16T01:49:36;7.60;99.90
25300;DHT22;13241;51.208;4.432;2023-03-16T01:52:05;7.60;99.90
25300;DHT22;13241;51.208;4.432;2023-03-16T01:54:38;7.70;99.90
25300;DHT22;13241;51.208;4.432;2023-03-16T01:57:10;7.70;99.90
25300;DHT22;13241;51.208;4.432;2023-03-16T02:02:10;7.70;99.90
25300;DHT22;13241;51.208;4.432;2023-03-16T02:07:31;7.70;99.90
25300;DHT22;13241;51.208;4.432;2023-03-16T02:10:02;7.60;99.90
25300;DHT22;13241;51.208;4.432;2023-03-16T02:12:30;7.60;99.90
25300;DHT22;13241;51.208;4.432;2023-03-16T02:14:59;7.50;99.90
25300;DHT22;13241;51.208;4.432;2023-03-16T02:17:27;7.50;99.90
25300;DHT22;13241;51.208;4.432;2023-03-16T02:22:48;7.50;99.90
25300;DHT22;13241;51.208;4.432;2023-03-16T02:25:17;7.50;99.90
25300;DHT22;13241;51.208;4.432;2023-03-16T02:30:22;7.60;99.90
25300;DHT22;13241;51.208;4.432;2023-03-16T02:32:59;7.60;99.90
25300;DHT22;13241;51.208;4.432;2023-03-16T02:35:27;7.60;99.90
25300;DHT22;13241;51.208;4.432;2023-03-16T02:37:54;7.60;99.90
25300;DHT22;13241;51.208;4.432;2023-03-16T02:40:29;7.60;99.90
25300;DHT22;13241;51.208;4.432;2023-03-16T02:43:02;7.70;99.90
25300;DHT22;13241;51.208;4.432;2023-03-16T02:46:00;7.70;99.90
25300;DHT22;13241;51.208;4.432;2023-03-16T02:48:43;7.70;99.90
25300;DHT22;13241;51.208;4.432;2023-03-16T02:51:11;7.70;99.90
25300;DHT22;13241;51.208;4.432;2023-03-16T02:53:38;7.70;99.90
25300;DHT22;13241;51.208;4.432;2023-03-16T02:56:06;7.70;99.90
25300;DHT22;13241;51.208;4.432;2023-03-16T02:58:35;7.70;99.90
25300;DHT22;13241;51.208;4.432;2023-03-16T03:01:06;7.70;99.90
25300;DHT22;13241;51.208;4.432;2023-03-16T03:03:34;7.70;99.90
25300;DHT22;13241;51.208;4.432;2023-03-16T03:06:01;7.70;99.90
25300;DHT22;13241;51.208;4.432;2023-03-16T03:08:33;7.60;99.90
25300;DHT22;13241;51.208;4.432;2023-03-16T03:11:01;7.80;99.90
25300;DHT22;13241;51.208;4.432;2023-03-16T03:13:28;7.70;99.90
25300;DHT22;13241;51.208;4.432;2023-03-16T03:15:55;7.70;99.90
25300;DHT22;13241;51.208;4.432;2023-03-16T03:18:24;7.60;99.90
25300;DHT22;13241;51.208;4.432;2023-03-16T03:20:52;7.50;99.90
25300;DHT22;13241;51.208;4.432;2023-03-16T03:23:19;7.50;99.90
25300;DHT22;13241;51.208;4.432;2023-03-16T03:25:46;7.50;99.90
25300;DHT22;13241;51.208;4.432;2023-03-16T03:28:14;7.60;99.90
25300;DHT22;13241;51.208;4.432;2023-03-16T03:30:41;7.50;99.90
25300;DHT22;13241;51.208;4.432;2023-03-16T03:33:08;7.50;99.90
25300;DHT22;13241;51.208;4.432;2023-03-16T03:35:35;7.40;99.90
25300;DHT22;13241;51.208;4.432;2023-03-16T03:38:02;7.40;99.90
25300;DHT22;13241;51.208;4.432;2023-03-16T03:40:29;7.30;99.90
25300;DHT22;13241;51.208;4.432;2023-03-16T03:43:00;7.30;99.90
25300;DHT22;13241;51.208;4.432;2023-03-16T03:45:29;7.30;99.90
25300;DHT22;13241;51.208;4.432;2023-03-16T03:47:56;7.40;99.90
25300;DHT22;13241;51.208;4.432;2023-03-16T03:50:23;7.30;99.90
25300;DHT22;13241;51.208;4.432;2023-03-16T03:53:04;7.30;99.90
25300;DHT22;13241;51.208;4.432;2023-03-16T03:55:37;7.30;99.90
25300;DHT22;13241;51.208;4.432;2023-03-16T03:58:04;7.30;99.90
25300;DHT22;13241;51.208;4.432;2023-03-16T04:00:31;7.20;99.90
25300;DHT22;13241;51.208;4.432;2023-03-16T04:02:58;7.10;99.90
25300;DHT22;13241;51.208;4.432;2023-03-16T04:05:32;7.10;99.90
25300;DHT22;13241;51.208;4.432;2023-03-16T04:08:00;7.10;99.90
25300;DHT22;13241;51.208;4.432;2023-03-16T04:10:28;7.10;99.90
25300;DHT22;13241;51.208;4.432;2023-03-16T04:12:58;7.10;99.90
25300;DHT22;13241;51.208;4.432;2023-03-16T04:15:29;7.20;99.90
25300;DHT22;13241;51.208;4.432;2023-03-16T04:18:07;7.20;99.90
25300;DHT22;13241;51.208;4.432;2023-03-16T04:20:34;7.30;99.90
25300;DHT22;13241;51.208;4.432;2023-03-16T04:23:02;7.20;99.90
25300;DHT22;13241;51.208;4.432;2023-03-16T04:25:30;7.20;99.90
25300;DHT22;13241;51.208;4.432;2023-03-16T04:27:58;7.20;99.90
25300;DHT22;13241;51.208;4.432;2023-03-16T04:30:28;7.20;99.90
25300;DHT22;13241;51.208;4.432;2023-03-16T04:33:06;7.20;99.90
25300;DHT22;13241;51.208;4.432;2023-03-16T04:35:33;7.20;99.90
25300;DHT22;13241;51.208;4.432;2023-03-16T04:38:00;7.20;99.90
25300;DHT22;13241;51.208;4.432;2023-03-16T04:40:38;7.10;99.90
25300;DHT22;13241;51.208;4.432;2023-03-16T04:43:13;7.20;99.90
25300;DHT22;13241;51.208;4.432;2023-03-16T04:45:41;7.10;99.90
25300;DHT22;13241;51.208;4.432;2023-03-16T04:48:09;7.20;99.90
25300;DHT22;13241;51.208;4.432;2023-03-16T04:50:37;7.10;99.90
25300;DHT22;13241;51.208;4.432;2023-03-16T04:53:05;7.10;99.90
25300;DHT22;13241;51.208;4.432;2023-03-16T04:55:32;7.10;99.90
25300;DHT22;13241;51.208;4.432;2023-03-16T04:57:59;7.10;99.90
25300;DHT22;13241;51.208;4.432;2023-03-16T05:00:31;7.10;99.90
25300;DHT22;13241;51.208;4.432;2023-03-16T05:03:04;7.20;99.90
25300;DHT22;13241;51.208;4.432;2023-03-16T05:05:32;7.20;99.90
25300;DHT22;13241;51.208;4.432;2023-03-16T05:08:00;7.20;99.90
25300;DHT22;13241;51.208;4.432;2023-03-16T05:10:29;7.20;99.90
25300;DHT22;13241;51.208;4.432;2023-03-16T05:12:56;7.20;99.90
25300;DHT22;13241;51.208;4.432;2023-03-16T05:15:23;7.20;99.90
25300;DHT22;13241;51.208;4.432;2023-03-16T05:18:13;7.20;99.90
25300;DHT22;13241;51.208;4.432;2023-03-16T05:20:40;7.20;99.90
25300;DHT22;13241;51.208;4.432;2023-03-16T05:23:07;7.20;99.90
25300;DHT22;13241;51.208;4.432;2023-03-16T05:25:42;7.10;99.90
25300;DHT22;13241;51.208;4.432;2023-03-16T05:28:12;7.10;99.90
25300;DHT22;13241;51.208;4.432;2023-03-16T05:30:54;7.10;99.90
25300;DHT22;13241;51.208;4.432;2023-03-16T05:33:25;7.20;99.90
25300;DHT22;13241;51.208;4.432;2023-03-16T05:35:59;7.10;99.90
25300;DHT22;13241;51.208;4.432;2023-03-16T05:38:29;7.20;99.90
25300;DHT22;13241;51.208;4.432;2023-03-16T05:40:57;7.20;99.90
25300;DHT22;13241;51.208;4.432;2023-03-16T05:43:46;7.20;99.90
25300;DHT22;13241;51.208;4.432;2023-03-16T05:46:14;7.20;99.90
25300;DHT22;13241;51.208;4.432;2023-03-16T05:48:41;7.10;99.90
25300;DHT22;13241;51.208;4.432;2023-03-16T05:51:11;7.20;99.90
25300;DHT22;13241;51.208;4.432;2023-03-16T05:53:40;7.20;99.90
25300;DHT22;13241;51.208;4.432;2023-03-16T05:56:15;7.20;99.90
25300;DHT22;13241;51.208;4.432;2023-03-16T05:58:44;7.20;99.90
25300;DHT22;13241;51.208;4.432;2023-03-16T06:01:11;7.20;99.90
25300;DHT22;13241;51.208;4.432;2023-03-16T06:03:41;7.10;99.90
25300;DHT22;13241;51.208;4.432;2023-03-16T06:06:12;7.10;99.90
25300;DHT22;13241;51.208;4.432;2023-03-16T06:08:50;7.10;99.90
25300;DHT22;13241;51.208;4.432;2023-03-16T06:11:19;7.10;99.90
25300;DHT22;13241;51.208;4.432;2023-03-16T06:13:46;7.30;99.90
25300;DHT22;13241;51.208;4.432;2023-03-16T06:16:13;7.40;99.90
25300;DHT22;13241;51.208;4.432;2023-03-16T06:18:42;7.40;99.90
25300;DHT22;13241;51.208;4.432;2023-03-16T06:21:09;7.50;99.90
25300;DHT22;13241;51.208;4.432;2023-03-16T06:23:37;7.40;99.90
25300;DHT22;13241;51.208;4.432;2023-03-16T06:26:05;7.40;99.90
25300;DHT22;13241;51.208;4.432;2023-03-16T06:28:34;7.40;99.90
25300;DHT22;13241;51.208;4.432;2023-03-16T06:31:02;7.50;99.90
25300;DHT22;13241;51.208;4.432;2023-03-16T06:33:32;7.50;99.90
25300;DHT22;13241;51.208;4.432;2023-03-16T06:35:59;7.50;99.90
25300;DHT22;13241;51.208;4.432;2023-03-16T06:38:37;7.60;99.90
25300;DHT22;13241;51.208;4.432;2023-03-16T06:41:13;7.60;99.90
25300;DHT22;13241;51.208;4.432;2023-03-16T06:43:40;7.60;99.90
25300;DHT22;13241;51.208;4.432;2023-03-16T06:46:08;7.70;99.90
25300;DHT22;13241;51.208;4.432;2023-03-16T06:48:37;7.70;99.90
25300;DHT22;13241;51.208;4.432;2023-03-16T06:51:04;7.70;99.90
25300;DHT22;13241;51.208;4.432;2023-03-16T06:53:34;7.70;99.90
25300;DHT22;13241;51.208;4.432;2023-03-16T06:56:01;7.80;99.90
25300;DHT22;13241;51.208;4.432;2023-03-16T06:58:31;7.80;99.90
25300;DHT22;13241;51.208;4.432;2023-03-16T07:01:02;7.80;99.90
25300;DHT22;13241;51.208;4.432;2023-03-16T07:03:30;7.80;99.90
25300;DHT22;13241;51.208;4.432;2023-03-16T07:06:03;7.80;99.90
25300;DHT22;13241;51.208;4.432;2023-03-16T07:08:31;7.90;99.90
25300;DHT22;13241;51.208;4.432;2023-03-16T07:10:58;7.80;99.90
25300;DHT22;13241;51.208;4.432;2023-03-16T07:13:25;7.90;99.90
25300;DHT22;13241;51.208;4.432;2023-03-16T07:15:54;7.90;99.90
25300;DHT22;13241;51.208;4.432;2023-03-16T07:18:23;7.90;99.90
25300;DHT22;13241;51.208;4.432;2023-03-16T07:20:53;8.00;99.90
25300;DHT22;13241;51.208;4.432;2023-03-16T07:23:24;8.00;99.90
25300;DHT22;13241;51.208;4.432;2023-03-16T07:25:55;8.10;99.90
25300;DHT22;13241;51.208;4.432;2023-03-16T07:28:22;8.10;99.90
25300;DHT22;13241;51.208;4.432;2023-03-16T07:30:53;8.20;99.90
25300;DHT22;13241;51.208;4.432;2023-03-16T07:33:35;8.30;99.90
25300;DHT22;13241;51.208;4.432;2023-03-16T07:36:06;8.40;99.90
25300;DHT22;13241;51.208;4.432;2023-03-16T07:38:38;8.50;99.90
25300;DHT22;13241;51.208;4.432;2023-03-16T07:41:08;8.60;99.90
25300;DHT22;13241;51.208;4.432;2023-03-16T07:43:36;8.60;99.90
25300;DHT22;13241;51.208;4.432;2023-03-16T07:46:03;8.60;99.90
25300;DHT22;13241;51.208;4.432;2023-03-16T07:48:31;8.60;99.90
25300;DHT22;13241;51.208;4.432;2023-03-16T07:51:01;8.50;99.90
25300;DHT22;13241;51.208;4.432;2023-03-16T07:53:29;8.40;99.90
25300;DHT22;13241;51.208;4.432;2023-03-16T07:56:11;8.50;99.90
25300;DHT22;13241;51.208;4.432;2023-03-16T07:58:42;8.60;99.90
25300;DHT22;13241;51.208;4.432;2023-03-16T08:01:09;8.80;99.90
25300;DHT22;13241;51.208;4.432;2023-03-16T08:03:37;9.00;99.90
25300;DHT22;13241;51.208;4.432;2023-03-16T08:06:05;9.20;99.90
25300;DHT22;13241;51.208;4.432;2023-03-16T08:08:33;9.30;99.90
25300;DHT22;13241;51.208;4.432;2023-03-16T08:11:00;9.40;99.90
25300;DHT22;13241;51.208;4.432;2023-03-16T08:13:38;9.60;99.90
25300;DHT22;13241;51.208;4.432;2023-03-16T08:16:05;9.60;99.90
25300;DHT22;13241;51.208;4.432;2023-03-16T08:18:39;9.60;99.90
25300;DHT22;13241;51.208;4.432;2023-03-16T08:21:08;9.50;99.90
25300;DHT22;13241;51.208;4.432;2023-03-16T08:23:35;9.40;99.90
25300;DHT22;13241;51.208;4.432;2023-03-16T08:26:03;9.40;99.90
25300;DHT22;13241;51.208;4.432;2023-03-16T08:28:34;9.30;99.90
25300;DHT22;13241;51.208;4.432;2023-03-16T08:31:07;9.30;99.90
25300;DHT22;13241;51.208;4.432;2023-03-16T08:33:40;9.40;99.90
25300;DHT22;13241;51.208;4.432;2023-03-16T08:36:11;9.40;99.90
25300;DHT22;13241;51.208;4.432;2023-03-16T08:38:40;9.50;99.90
25300;DHT22;13241;51.208;4.432;2023-03-16T08:41:09;9.50;99.90
25300;DHT22;13241;51.208;4.432;2023-03-16T08:43:39;9.50;99.90
25300;DHT22;13241;51.208;4.432;2023-03-16T08:46:06;9.80;99.90
25300;DHT22;13241;51.208;4.432;2023-03-16T08:48:47;9.90;99.90
25300;DHT22;13241;51.208;4.432;2023-03-16T08:51:15;10.00;99.90
25300;DHT22;13241;51.208;4.432;2023-03-16T08:53:43;10.10;99.90
25300;DHT22;13241;51.208;4.432;2023-03-16T08:56:11;10.20;99.90
25300;DHT22;13241;51.208;4.432;2023-03-16T08:58:40;10.40;99.90
25300;DHT22;13241;51.208;4.432;2023-03-16T09:01:12;10.60;99.90
25300;DHT22;13241;51.208;4.432;2023-03-16T09:03:40;10.90;99.90
25300;DHT22;13241;51.208;4.432;2023-03-16T09:06:09;11.10;99.90
25300;DHT22;13241;51.208;4.432;2023-03-16T09:08:36;11.20;99.90
25300;DHT22;13241;51.208;4.432;2023-03-16T09:11:09;11.30;99.90
25300;DHT22;13241;51.208;4.432;2023-03-16T09:13:38;11.40;99.90
25300;DHT22;13241;51.208;4.432;2023-03-16T09:16:06;11.40;99.90
25300;DHT22;13241;51.208;4.432;2023-03-16T09:18:34;11.30;99.90
25300;DHT22;13241;51.208;4.432;2023-03-16T09:21:04;11.40;99.90
25300;DHT22;13241;51.208;4.432;2023-03-16T09:23:33;11.30;99.90
25300;DHT22;13241;51.208;4.432;2023-03-16T09:26:02;11.30;99.90
25300;DHT22;13241;51.208;4.432;2023-03-16T09:28:31;11.30;99.90
25300;DHT22;13241;51.208;4.432;2023-03-16T09:30:58;11.60;99.90
25300;DHT22;13241;51.208;4.432;2023-03-16T09:33:26;11.70;99.90
25300;DHT22;13241;51.208;4.432;2023-03-16T09:35:54;11.70;99.90
25300;DHT22;13241;51.208;4.432;2023-03-16T09:38:24;11.70;99.90
25300;DHT22;13241;51.208;4.432;2023-03-16T09:46:34;11.70;99.90
25300;DHT22;13241;51.208;4.432;2023-03-16T09:49:04;11.70;99.90
25300;DHT22;13241;51.208;4.432;2023-03-16T09:57:30;11.70;99.90
25300;DHT22;13241;51.208;4.432;2023-03-16T10:00:23;11.70;99.90
25300;DHT22;13241;51.208;4.432;2023-03-16T10:05:33;12.00;99.90
25300;DHT22;13241;51.208;4.432;2023-03-16T10:18:56;12.80;99.90
25300;DHT22;13241;51.208;4.432;2023-03-16T10:21:24;12.90;99.90
25300;DHT22;13241;51.208;4.432;2023-03-16T10:23:51;12.90;99.90
25300;DHT22;13241;51.208;4.432;2023-03-16T10:26:32;13.00;99.90
25300;DHT22;13241;51.208;4.432;2023-03-16T10:29:05;13.10;99.90
25300;DHT22;13241;51.208;4.432;2023-03-16T10:31:34;13.10;99.90
25300;DHT22;13241;51.208;4.432;2023-03-16T10:34:05;13.30;99.90
25300;DHT22;13241;51.208;4.432;2023-03-16T10:36:34;13.50;99.90
25300;DHT22;13241;51.208;4.432;2023-03-16T10:39:06;13.70;99.90
25300;DHT22;13241;51.208;4.432;2023-03-16T10:41:42;13.90;99.90
25300;DHT22;13241;51.208;4.432;2023-03-16T10:44:12;14.00;99.90
25300;DHT22;13241;51.208;4.432;2023-03-16T10:46:56;14.00;99.90
25300;DHT22;13241;51.208;4.432;2023-03-16T10:49:44;14.00;99.90
25300;DHT22;13241;51.208;4.432;2023-03-16T10:52:34;14.00;99.90
25300;DHT22;13241;51.208;4.432;2023-03-16T10:55:16;14.10;99.90
25300;DHT22;13241;51.208;4.432;2023-03-16T10:57:49;14.00;99.90
25300;DHT22;13241;51.208;4.432;2023-03-16T11:00:26;13.90;99.90
25300;DHT22;13241;51.208;4.432;2023-03-16T11:02:55;13.90;99.90
25300;DHT22;13241;51.208;4.432;2023-03-16T11:05:30;13.90;99.90
25300;DHT22;13241;51.208;4.432;2023-03-16T11:08:10;13.90;99.90
25300;DHT22;13241;51.208;4.432;2023-03-16T11:10:46;13.90;99.90
25300;DHT22;13241;51.208;4.432;2023-03-16T11:13:21;14.10;99.90
25300;DHT22;13241;51.208;4.432;2023-03-16T11:18:47;14.30;99.90
25300;DHT22;13241;51.208;4.432;2023-03-16T11:21:20;14.10;99.90
25300;DHT22;13241;51.208;4.432;2023-03-16T11:23:51;14.20;99.90
25300;DHT22;13241;51.208;4.432;2023-03-16T11:26:33;14.30;99.90
25300;DHT22;13241;51.208;4.432;2023-03-16T11:29:22;14.40;99.90
25300;DHT22;13241;51.208;4.432;2023-03-16T11:31:54;14.60;99.90
25300;DHT22;13241;51.208;4.432;2023-03-16T11:34:26;14.60;99.90
25300;DHT22;13241;51.208;4.432;2023-03-16T11:36:56;14.60;99.90
25300;DHT22;13241;51.208;4.432;2023-03-16T11:44:43;14.60;99.90
25300;DHT22;13241;51.208;4.432;2023-03-16T11:50:04;14.50;99.90
25300;DHT22;13241;51.208;4.432;2023-03-16T11:52:44;14.30;99.90
25300;DHT22;13241;51.208;4.432;2023-03-16T11:55:18;14.20;99.90
25300;DHT22;13241;51.208;4.432;2023-03-16T12:07:00;14.50;99.90
25300;DHT22;13241;51.208;4.432;2023-03-16T12:12:43;14.80;99.90
25300;DHT22;13241;51.208;4.432;2023-03-16T12:18:23;15.00;99.90
25300;DHT22;13241;51.208;4.432;2023-03-16T12:21:00;15.10;99.90
25300;DHT22;13241;51.208;4.432;2023-03-16T12:23:52;15.10;99.90
25300;DHT22;13241;51.208;4.432;2023-03-16T12:26:24;15.00;99.90
25300;DHT22;13241;51.208;4.432;2023-03-16T12:28:56;15.20;99.90
25300;DHT22;13241;51.208;4.432;2023-03-16T12:31:42;15.20;99.90
25300;DHT22;13241;51.208;4.432;2023-03-16T12:34:26;15.30;99.90
25300;DHT22;13241;51.208;4.432;2023-03-16T12:42:47;15.30;99.90
25300;DHT22;13241;51.208;4.432;2023-03-16T12:45:26;15.30;99.90
25300;DHT22;13241;51.208;4.432;2023-03-16T12:50:57;15.30;99.90
25300;DHT22;13241;51.208;4.432;2023-03-16T12:53:42;15.20;99.90
25300;DHT22;13241;51.208;4.432;2023-03-16T12:56:12;15.20;99.90
25300;DHT22;13241;51.208;4.432;2023-03-16T12:58:42;15.20;99.90
25300;DHT22;13241;51.208;4.432;2023-03-16T13:01:11;15.20;99.90
25300;DHT22;13241;51.208;4.432;2023-03-16T13:03:40;15.20;99.90
25300;DHT22;13241;51.208;4.432;2023-03-16T13:06:16;15.20;99.90
25300;DHT22;13241;51.208;4.432;2023-03-16T13:08:47;15.20;99.90
25300;DHT22;13241;51.208;4.432;2023-03-16T13:11:16;15.20;99.90
25300;DHT22;13241;51.208;4.432;2023-03-16T13:16:30;15.50;99.90
25300;DHT22;13241;51.208;4.432;2023-03-16T13:18:57;15.50;99.90
25300;DHT22;13241;51.208;4.432;2023-03-16T13:21:41;15.60;99.90
25300;DHT22;13241;51.208;4.432;2023-03-16T13:24:33;15.70;99.90
25300;DHT22;13241;51.208;4.432;2023-03-16T13:29:57;15.70;99.90
25300;DHT22;13241;51.208;4.432;2023-03-16T13:32:28;15.80;99.90
25300;DHT22;13241;51.208;4.432;2023-03-16T13:34:59;15.80;99.90
25300;DHT22;13241;51.208;4.432;2023-03-16T13:37:28;15.80;99.90
25300;DHT22;13241;51.208;4.432;2023-03-16T13:39:57;15.90;99.90
25300;DHT22;13241;51.208;4.432;2023-03-16T13:42:28;15.90;99.90
25300;DHT22;13241;51.208;4.432;2023-03-16T13:44:56;15.70;99.90
25300;DHT22;13241;51.208;4.432;2023-03-16T13:47:26;15.70;99.90
25300;DHT22;13241;51.208;4.432;2023-03-16T13:49:58;15.80;99.90
25300;DHT22;13241;51.208;4.432;2023-03-16T13:52:33;16.10;99.90
25300;DHT22;13241;51.208;4.432;2023-03-16T13:55:17;16.80;99.90
25300;DHT22;13241;51.208;4.432;2023-03-16T13:57:47;17.60;99.90
25300;DHT22;13241;51.208;4.432;2023-03-16T14:00:20;18.20;99.90
25300;DHT22;13241;51.208;4.432;2023-03-16T14:02:59;18.30;99.90
25300;DHT22;13241;51.208;4.432;2023-03-16T14:05:32;18.40;99.90
25300;DHT22;13241;51.208;4.432;2023-03-16T14:08:01;18.50;99.40
25300;DHT22;13241;51.208;4.432;2023-03-16T14:10:33;18.50;99.20
25300;DHT22;13241;51.208;4.432;2023-03-16T14:13:21;18.40;98.90
25300;DHT22;13241;51.208;4.432;2023-03-16T14:15:50;18.20;98.60
25300;DHT22;13241;51.208;4.432;2023-03-16T14:18:18;18.00;99.10
25300;DHT22;13241;51.208;4.432;2023-03-16T14:20:54;17.80;99.60
25300;DHT22;13241;51.208;4.432;2023-03-16T14:23:44;17.80;99.10
25300;DHT22;13241;51.208;4.432;2023-03-16T14:26:14;17.80;99.70
25300;DHT22;13241;51.208;4.432;2023-03-16T14:28:59;17.90;98.60
25300;DHT22;13241;51.208;4.432;2023-03-16T14:31:45;18.10;98.00
25300;DHT22;13241;51.208;4.432;2023-03-16T14:34:38;18.20;97.80
25300;DHT22;13241;51.208;4.432;2023-03-16T14:37:09;18.20;97.70
25300;DHT22;13241;51.208;4.432;2023-03-16T14:39:37;18.10;97.30
25300;DHT22;13241;51.208;4.432;2023-03-16T14:42:13;18.20;97.10
25300;DHT22;13241;51.208;4.432;2023-03-16T14:44:41;18.30;97.30
25300;DHT22;13241;51.208;4.432;2023-03-16T14:47:27;18.50;97.20
25300;DHT22;13241;51.208;4.432;2023-03-16T14:49:55;18.40;96.70
25300;DHT22;13241;51.208;4.432;2023-03-16T14:52:26;18.70;96.10
25300;DHT22;13241;51.208;4.432;2023-03-16T14:54:57;18.70;95.80
25300;DHT22;13241;51.208;4.432;2023-03-16T14:57:25;18.70;95.70
25300;DHT22;13241;51.208;4.432;2023-03-16T14:59:53;19.10;95.50
25300;DHT22;13241;51.208;4.432;2023-03-16T15:02:26;19.40;95.30
25300;DHT22;13241;51.208;4.432;2023-03-16T15:04:55;19.80;94.60
25300;DHT22;13241;51.208;4.432;2023-03-16T15:07:25;20.30;94.00
25300;DHT22;13241;51.208;4.432;2023-03-16T15:09:54;21.00;93.00
25300;DHT22;13241;51.208;4.432;2023-03-16T15:12:22;20.70;91.80
25300;DHT22;13241;51.208;4.432;2023-03-16T15:14:51;20.80;91.90
25300;DHT22;13241;51.208;4.432;2023-03-16T15:17:36;21.10;91.30
25300;DHT22;13241;51.208;4.432;2023-03-16T15:20:04;20.70;91.00
25300;DHT22;13241;51.208;4.432;2023-03-16T15:22:35;20.20;91.10
25300;DHT22;13241;51.208;4.432;2023-03-16T15:25:35;19.40;92.10
25300;DHT22;13241;51.208;4.432;2023-03-16T15:28:13;19.20;93.00
25300;DHT22;13241;51.208;4.432;2023-03-16T15:30:42;19.50;93.20
25300;DHT22;13241;51.208;4.432;2023-03-16T15:33:10;19.80;92.30
25300;DHT22;13241;51.208;4.432;2023-03-16T15:35:38;20.30;91.90
25300;DHT22;13241;51.208;4.432;2023-03-16T15:38:21;20.90;90.90
25300;DHT22;13241;51.208;4.432;2023-03-16T15:40:50;21.70;90.40
25300;DHT22;13241;51.208;4.432;2023-03-16T15:43:19;22.10;87.60
25300;DHT22;13241;51.208;4.432;2023-03-16T15:45:47;22.50;87.00
25300;DHT22;13241;51.208;4.432;2023-03-16T15:48:14;22.80;85.90
25300;DHT22;13241;51.208;4.432;2023-03-16T15:50:48;22.80;86.10
25300;DHT22;13241;51.208;4.432;2023-03-16T15:53:39;22.70;84.50
25300;DHT22;13241;51.208;4.432;2023-03-16T15:56:09;22.70;83.90
25300;DHT22;13241;51.208;4.432;2023-03-16T15:58:40;22.10;80.90
25300;DHT22;13241;51.208;4.432;2023-03-16T16:01:19;21.30;81.70
25300;DHT22;13241;51.208;4.432;2023-03-16T16:03:47;20.50;83.70
25300;DHT22;13241;51.208;4.432;2023-03-16T16:06:14;19.60;85.80
25300;DHT22;13241;51.208;4.432;2023-03-16T16:08:42;18.90;89.80
25300;DHT22;13241;51.208;4.432;2023-03-16T16:11:22;17.90;91.00
25300;DHT22;13241;51.208;4.432;2023-03-16T16:13:50;17.40;91.50
25300;DHT22;13241;51.208;4.432;2023-03-16T16:16:18;16.80;93.10
25300;DHT22;13241;51.208;4.432;2023-03-16T16:18:45;16.50;93.50
25300;DHT22;13241;51.208;4.432;2023-03-16T16:21:24;16.20;93.90
25300;DHT22;13241;51.208;4.432;2023-03-16T16:23:52;15.90;93.70
25300;DHT22;13241;51.208;4.432;2023-03-16T16:29:19;15.70;94.30
25300;DHT22;13241;51.208;4.432;2023-03-16T16:31:48;15.50;94.60
25300;DHT22;13241;51.208;4.432;2023-03-16T16:34:18;15.40;94.50
25300;DHT22;13241;51.208;4.432;2023-03-16T16:36:47;15.30;94.80
25300;DHT22;13241;51.208;4.432;2023-03-16T16:39:14;15.20;95.30
25300;DHT22;13241;51.208;4.432;2023-03-16T16:41:43;15.20;95.20
25300;DHT22;13241;51.208;4.432;2023-03-16T16:44:16;15.20;95.60
25300;DHT22;13241;51.208;4.432;2023-03-16T16:46:44;15.10;95.80
25300;DHT22;13241;51.208;4.432;2023-03-16T16:49:18;15.00;95.90
25300;DHT22;13241;51.208;4.432;2023-03-16T16:51:46;14.90;96.00
25300;DHT22;13241;51.208;4.432;2023-03-16T16:54:19;14.90;95.80
25300;DHT22;13241;51.208;4.432;2023-03-16T16:56:48;14.80;96.10
25300;DHT22;13241;51.208;4.432;2023-03-16T16:59:18;14.80;96.20
25300;DHT22;13241;51.208;4.432;2023-03-16T17:01:46;14.90;96.60
25300;DHT22;13241;51.208;4.432;2023-03-16T17:04:18;14.70;97.10
25300;DHT22;13241;51.208;4.432;2023-03-16T17:06:49;14.60;97.10
25300;DHT22;13241;51.208;4.432;2023-03-16T17:09:17;14.60;97.60
25300;DHT22;13241;51.208;4.432;2023-03-16T17:11:45;14.50;97.40
25300;DHT22;13241;51.208;4.432;2023-03-16T17:14:16;14.40;98.30
25300;DHT22;13241;51.208;4.432;2023-03-16T17:16:45;14.40;98.30
25300;DHT22;13241;51.208;4.432;2023-03-16T17:19:24;14.40;98.80
25300;DHT22;13241;51.208;4.432;2023-03-16T17:21:54;14.40;99.20
25300;DHT22;13241;51.208;4.432;2023-03-16T17:24:23;14.30;99.60
25300;DHT22;13241;51.208;4.432;2023-03-16T17:26:53;14.20;99.70